sensor_id;sensor_type;location;lat;lon;timestamp;temperature;humidity
74968;SHT30;63523;51.880;12.630;2023-04-24T00:00:03;12.69;80.80
74968;SHT30;63523;51.880;12.630;2023-04-24T00:02:31;12.57;81.06
74968;SHT30;63523;51.880;12.630;2023-04-24T00:04:57;12.50;81.46
74968;SHT30;63523;51.880;12.630;2023-04-24T00:07:31;12.42;81.83
74968;SHT30;63523;51.880;12.630;2023-04-24T00:09:56;12.42;81.84
74968;SHT30;63523;51.880;12.630;2023-04-24T00:12:22;12.45;82.07
74968;SHT30;63523;51.880;12.630;2023-04-24T00:14:47;12.45;82.26
74968;SHT30;63523;51.880;12.630;2023-04-24T00:17:12;12.48;82.11
74968;SHT30;63523;51.880;12.630;2023-04-24T00:19:38;12.49;82.21
74968;SHT30;63523;51.880;12.630;2023-04-24T00:22:03;12.55;82.13
74968;SHT30;63523;51.880;12.630;2023-04-24T00:24:28;12.59;81.93
74968;SHT30;63523;51.880;12.630;2023-04-24T00:26:54;12.64;81.86
74968;SHT30;63523;51.880;12.630;2023-04-24T00:29:19;12.61;81.78
74968;SHT30;63523;51.880;12.630;2023-04-24T00:31:45;12.60;82.07
74968;SHT30;63523;51.880;12.630;2023-04-24T00:34:10;12.63;81.91
74968;SHT30;63523;51.880;12.630;2023-04-24T00:36:37;12.66;81.86
74968;SHT30;63523;51.880;12.630;2023-04-24T00:39:02;12.69;81.82
74968;SHT30;63523;51.880;12.630;2023-04-24T00:41:27;12.67;81.65
74968;SHT30;63523;51.880;12.630;2023-04-24T00:43:53;12.69;81.50
74968;SHT30;63523;51.880;12.630;2023-04-24T00:46:18;12.69;81.63
74968;SHT30;63523;51.880;12.630;2023-04-24T00:48:44;12.69;81.67
74968;SHT30;63523;51.880;12.630;2023-04-24T00:51:09;12.67;81.62
74968;SHT30;63523;51.880;12.630;2023-04-24T00:53:35;12.69;81.53
74968;SHT30;63523;51.880;12.630;2023-04-24T00:56:01;12.64;81.68
74968;SHT30;63523;51.880;12.630;2023-04-24T00:58:27;12.59;81.65
74968;SHT30;63523;51.880;12.630;2023-04-24T01:00:53;12.52;81.71
74968;SHT30;63523;51.880;12.630;2023-04-24T01:03:21;12.46;81.67
74968;SHT30;63523;51.880;12.630;2023-04-24T01:05:49;12.39;81.73
74968;SHT30;63523;51.880;12.630;2023-04-24T01:08:14;12.35;81.76
74968;SHT30;63523;51.880;12.630;2023-04-24T01:10:41;12.28;81.92
74968;SHT30;63523;51.880;12.630;2023-04-24T01:13:07;12.25;82.08
74968;SHT30;63523;51.880;12.630;2023-04-24T01:15:33;12.21;82.45
74968;SHT30;63523;51.880;12.630;2023-04-24T01:17:58;12.21;82.42
74968;SHT30;63523;51.880;12.630;2023-04-24T01:20:24;12.24;82.23
74968;SHT30;63523;51.880;12.630;2023-04-24T01:22:51;12.29;81.98
74968;SHT30;63523;51.880;12.630;2023-04-24T01:25:16;12.31;81.90
74968;SHT30;63523;51.880;12.630;2023-04-24T01:27:42;12.36;81.41
74968;SHT30;63523;51.880;12.630;2023-04-24T01:30:07;12.39;80.83
74968;SHT30;63523;51.880;12.630;2023-04-24T01:32:33;12.40;80.72
74968;SHT30;63523;51.880;12.630;2023-04-24T01:34:59;12.45;80.41
74968;SHT30;63523;51.880;12.630;2023-04-24T01:37:24;12.45;80.06
74968;SHT30;63523;51.880;12.630;2023-04-24T01:39:51;12.46;79.96
74968;SHT30;63523;51.880;12.630;2023-04-24T01:42:17;12.49;79.34
74968;SHT30;63523;51.880;12.630;2023-04-24T01:44:42;12.55;79.10
74968;SHT30;63523;51.880;12.630;2023-04-24T01:47:07;12.59;79.05
74968;SHT30;63523;51.880;12.630;2023-04-24T01:49:33;12.57;79.21
74968;SHT30;63523;51.880;12.630;2023-04-24T01:51:58;12.63;79.00
74968;SHT30;63523;51.880;12.630;2023-04-24T01:54:24;12.66;78.56
74968;SHT30;63523;51.880;12.630;2023-04-24T01:56:49;12.70;78.63
74968;SHT30;63523;51.880;12.630;2023-04-24T01:59:16;12.69;78.67
74968;SHT30;63523;51.880;12.630;2023-04-24T02:01:42;12.69;78.67
74968;SHT30;63523;51.880;12.630;2023-04-24T02:04:07;12.70;78.68
74968;SHT30;63523;51.880;12.630;2023-04-24T02:06:33;12.69;78.57
74968;SHT30;63523;51.880;12.630;2023-04-24T02:08:59;12.70;78.38
74968;SHT30;63523;51.880;12.630;2023-04-24T02:11:25;12.66;78.42
74968;SHT30;63523;51.880;12.630;2023-04-24T02:13:50;12.64;78.44
74968;SHT30;63523;51.880;12.630;2023-04-24T02:16:16;12.59;78.54
74968;SHT30;63523;51.880;12.630;2023-04-24T02:18:41;12.56;78.67
74968;SHT30;63523;51.880;12.630;2023-04-24T02:21:07;12.53;78.51
74968;SHT30;63523;51.880;12.630;2023-04-24T02:23:32;12.48;78.80
74968;SHT30;63523;51.880;12.630;2023-04-24T02:25:57;12.42;78.66
74968;SHT30;63523;51.880;12.630;2023-04-24T02:28:23;12.36;79.04
74968;SHT30;63523;51.880;12.630;2023-04-24T02:30:48;12.35;79.27
74968;SHT30;63523;51.880;12.630;2023-04-24T02:33:13;12.31;79.35
74968;SHT30;63523;51.880;12.630;2023-04-24T02:35:38;12.25;79.36
74968;SHT30;63523;51.880;12.630;2023-04-24T02:38:04;12.24;79.62
74968;SHT30;63523;51.880;12.630;2023-04-24T02:40:29;12.24;79.33
74968;SHT30;63523;51.880;12.630;2023-04-24T02:42:55;12.22;79.13
74968;SHT30;63523;51.880;12.630;2023-04-24T02:45:20;12.20;79.39
74968;SHT30;63523;51.880;12.630;2023-04-24T02:47:46;12.15;79.86
74968;SHT30;63523;51.880;12.630;2023-04-24T02:50:11;12.10;79.74
74968;SHT30;63523;51.880;12.630;2023-04-24T02:52:36;12.06;80.24
74968;SHT30;63523;51.880;12.630;2023-04-24T02:55:02;12.04;79.98
74968;SHT30;63523;51.880;12.630;2023-04-24T02:57:27;12.04;80.02
74968;SHT30;63523;51.880;12.630;2023-04-24T02:59:52;12.05;79.80
74968;SHT30;63523;51.880;12.630;2023-04-24T03:02:17;11.99;80.05
74968;SHT30;63523;51.880;12.630;2023-04-24T03:04:43;11.94;80.24
74968;SHT30;63523;51.880;12.630;2023-04-24T03:07:08;11.94;80.12
74968;SHT30;63523;51.880;12.630;2023-04-24T03:09:33;11.91;80.43
74968;SHT30;63523;51.880;12.630;2023-04-24T03:11:59;11.87;80.43
74968;SHT30;63523;51.880;12.630;2023-04-24T03:14:25;11.81;80.57
74968;SHT30;63523;51.880;12.630;2023-04-24T03:16:50;11.77;80.79
74968;SHT30;63523;51.880;12.630;2023-04-24T03:19:16;11.73;80.99
74968;SHT30;63523;51.880;12.630;2023-04-24T03:21:41;11.69;80.94
74968;SHT30;63523;51.880;12.630;2023-04-24T03:24:07;11.65;81.01
74968;SHT30;63523;51.880;12.630;2023-04-24T03:26:33;11.65;81.03
74968;SHT30;63523;51.880;12.630;2023-04-24T03:28:58;11.66;80.95
74968;SHT30;63523;51.880;12.630;2023-04-24T03:31:24;11.62;81.05
74968;SHT30;63523;51.880;12.630;2023-04-24T03:33:49;11.59;81.13
74968;SHT30;63523;51.880;12.630;2023-04-24T03:36:16;11.53;81.19
74968;SHT30;63523;51.880;12.630;2023-04-24T03:38:41;11.47;81.38
74968;SHT30;63523;51.880;12.630;2023-04-24T03:41:06;11.49;81.46
74968;SHT30;63523;51.880;12.630;2023-04-24T03:43:31;11.43;81.59
74968;SHT30;63523;51.880;12.630;2023-04-24T03:45:58;11.36;81.75
74968;SHT30;63523;51.880;12.630;2023-04-24T03:48:23;11.31;81.95
74968;SHT30;63523;51.880;12.630;2023-04-24T03:50:49;11.28;82.35
74968;SHT30;63523;51.880;12.630;2023-04-24T03:53:15;11.19;82.31
74968;SHT30;63523;51.880;12.630;2023-04-24T03:55:40;11.22;82.35
74968;SHT30;63523;51.880;12.630;2023-04-24T03:58:05;11.25;82.28
74968;SHT30;63523;51.880;12.630;2023-04-24T04:00:31;11.21;82.46
74968;SHT30;63523;51.880;12.630;2023-04-24T04:02:57;11.21;82.58
74968;SHT30;63523;51.880;12.630;2023-04-24T04:05:22;11.18;82.58
74968;SHT30;63523;51.880;12.630;2023-04-24T04:07:47;11.18;82.72
74968;SHT30;63523;51.880;12.630;2023-04-24T04:10:13;11.14;82.66
74968;SHT30;63523;51.880;12.630;2023-04-24T04:12:38;11.15;82.52
74968;SHT30;63523;51.880;12.630;2023-04-24T04:15:03;11.15;82.37
74968;SHT30;63523;51.880;12.630;2023-04-24T04:17:31;11.12;82.37
74968;SHT30;63523;51.880;12.630;2023-04-24T04:19:56;11.14;82.60
74968;SHT30;63523;51.880;12.630;2023-04-24T04:22:22;11.11;82.54
74968;SHT30;63523;51.880;12.630;2023-04-24T04:24:47;11.11;82.74
74968;SHT30;63523;51.880;12.630;2023-04-24T04:27:13;11.15;82.70
74968;SHT30;63523;51.880;12.630;2023-04-24T04:29:38;11.18;82.61
74968;SHT30;63523;51.880;12.630;2023-04-24T04:32:05;11.22;82.28
74968;SHT30;63523;51.880;12.630;2023-04-24T04:34:31;11.25;82.23
74968;SHT30;63523;51.880;12.630;2023-04-24T04:36:57;11.32;82.07
74968;SHT30;63523;51.880;12.630;2023-04-24T04:39:24;11.32;81.72
74968;SHT30;63523;51.880;12.630;2023-04-24T04:41:49;11.33;81.76
74968;SHT30;63523;51.880;12.630;2023-04-24T04:44:15;11.38;81.87
74968;SHT30;63523;51.880;12.630;2023-04-24T04:46:40;11.42;81.70
74968;SHT30;63523;51.880;12.630;2023-04-24T04:49:07;11.43;81.44
74968;SHT30;63523;51.880;12.630;2023-04-24T04:51:33;11.47;80.93
74968;SHT30;63523;51.880;12.630;2023-04-24T04:53:59;11.50;80.63
74968;SHT30;63523;51.880;12.630;2023-04-24T04:56:24;11.58;80.44
74968;SHT30;63523;51.880;12.630;2023-04-24T04:58:50;11.63;80.16
74968;SHT30;63523;51.880;12.630;2023-04-24T05:01:15;11.70;80.14
74968;SHT30;63523;51.880;12.630;2023-04-24T05:03:41;11.73;80.35
74968;SHT30;63523;51.880;12.630;2023-04-24T05:06:06;11.78;80.57
74968;SHT30;63523;51.880;12.630;2023-04-24T05:08:31;11.87;79.79
74968;SHT30;63523;51.880;12.630;2023-04-24T05:10:57;11.98;79.64
74968;SHT30;63523;51.880;12.630;2023-04-24T05:13:22;12.10;79.40
74968;SHT30;63523;51.880;12.630;2023-04-24T05:15:47;12.17;79.47
74968;SHT30;63523;51.880;12.630;2023-04-24T05:18:13;12.29;79.34
74968;SHT30;63523;51.880;12.630;2023-04-24T05:20:38;12.42;78.99
74968;SHT30;63523;51.880;12.630;2023-04-24T05:23:03;12.50;78.98
74968;SHT30;63523;51.880;12.630;2023-04-24T05:25:28;12.70;78.47
74968;SHT30;63523;51.880;12.630;2023-04-24T05:27:54;12.95;77.63
74968;SHT30;63523;51.880;12.630;2023-04-24T05:30:19;13.26;77.57
74968;SHT30;63523;51.880;12.630;2023-04-24T05:32:45;13.69;75.15
74968;SHT30;63523;51.880;12.630;2023-04-24T05:35:11;14.05;73.87
74968;SHT30;63523;51.880;12.630;2023-04-24T05:37:36;14.46;74.21
74968;SHT30;63523;51.880;12.630;2023-04-24T05:40:01;14.84;71.70
74968;SHT30;63523;51.880;12.630;2023-04-24T05:42:27;15.27;71.54
74968;SHT30;63523;51.880;12.630;2023-04-24T05:44:52;15.60;69.27
74968;SHT30;63523;51.880;12.630;2023-04-24T05:47:19;15.67;66.86
74968;SHT30;63523;51.880;12.630;2023-04-24T05:49:46;15.60;66.93
74968;SHT30;63523;51.880;12.630;2023-04-24T05:52:11;15.31;67.25
74968;SHT30;63523;51.880;12.630;2023-04-24T05:54:37;15.00;68.30
74968;SHT30;63523;51.880;12.630;2023-04-24T05:57:02;14.80;68.49
74968;SHT30;63523;51.880;12.630;2023-04-24T05:59:32;14.59;69.75
74968;SHT30;63523;51.880;12.630;2023-04-24T06:01:57;14.48;70.22
74968;SHT30;63523;51.880;12.630;2023-04-24T06:04:23;14.46;70.31
74968;SHT30;63523;51.880;12.630;2023-04-24T06:06:48;14.40;70.76
74968;SHT30;63523;51.880;12.630;2023-04-24T06:09:16;14.36;70.99
74968;SHT30;63523;51.880;12.630;2023-04-24T06:11:42;14.45;72.15
74968;SHT30;63523;51.880;12.630;2023-04-24T06:14:07;14.79;71.01
74968;SHT30;63523;51.880;12.630;2023-04-24T06:16:32;15.11;69.68
74968;SHT30;63523;51.880;12.630;2023-04-24T06:18:58;15.35;69.23
74968;SHT30;63523;51.880;12.630;2023-04-24T06:21:23;15.67;67.49
74968;SHT30;63523;51.880;12.630;2023-04-24T06:23:48;15.74;67.25
74968;SHT30;63523;51.880;12.630;2023-04-24T06:26:14;15.86;67.64
74968;SHT30;63523;51.880;12.630;2023-04-24T06:28:40;15.83;66.71
74968;SHT30;63523;51.880;12.630;2023-04-24T06:31:05;15.84;66.29
74968;SHT30;63523;51.880;12.630;2023-04-24T06:33:30;15.89;67.33
74968;SHT30;63523;51.880;12.630;2023-04-24T06:35:56;15.97;67.58
74968;SHT30;63523;51.880;12.630;2023-04-24T06:38:21;16.08;67.34
74968;SHT30;63523;51.880;12.630;2023-04-24T06:40:46;16.21;66.02
74968;SHT30;63523;51.880;12.630;2023-04-24T06:43:11;16.32;64.83
74968;SHT30;63523;51.880;12.630;2023-04-24T06:45:38;16.35;64.30
74968;SHT30;63523;51.880;12.630;2023-04-24T06:48:04;16.32;64.68
74968;SHT30;63523;51.880;12.630;2023-04-24T06:50:30;16.33;64.66
74968;SHT30;63523;51.880;12.630;2023-04-24T06:52:55;16.46;65.87
74968;SHT30;63523;51.880;12.630;2023-04-24T06:55:20;16.51;64.77
74968;SHT30;63523;51.880;12.630;2023-04-24T06:57:45;16.44;64.58
74968;SHT30;63523;51.880;12.630;2023-04-24T07:00:11;16.25;64.14
74968;SHT30;63523;51.880;12.630;2023-04-24T07:02:37;16.19;64.42
74968;SHT30;63523;51.880;12.630;2023-04-24T07:05:03;16.18;65.82
74968;SHT30;63523;51.880;12.630;2023-04-24T07:07:28;16.22;65.82
74968;SHT30;63523;51.880;12.630;2023-04-24T07:09:54;16.52;64.28
74968;SHT30;63523;51.880;12.630;2023-04-24T07:12:21;16.55;63.89
74968;SHT30;63523;51.880;12.630;2023-04-24T07:14:47;16.53;64.77
74968;SHT30;63523;51.880;12.630;2023-04-24T07:17:12;16.72;64.02
74968;SHT30;63523;51.880;12.630;2023-04-24T07:19:38;16.67;62.30
74968;SHT30;63523;51.880;12.630;2023-04-24T07:22:03;16.56;62.70
74968;SHT30;63523;51.880;12.630;2023-04-24T07:24:29;16.36;63.36
74968;SHT30;63523;51.880;12.630;2023-04-24T07:26:54;16.38;63.36
74968;SHT30;63523;51.880;12.630;2023-04-24T07:29:20;16.32;63.46
74968;SHT30;63523;51.880;12.630;2023-04-24T07:31:46;16.32;62.99
74968;SHT30;63523;51.880;12.630;2023-04-24T07:34:11;16.32;64.61
74968;SHT30;63523;51.880;12.630;2023-04-24T07:36:36;16.44;64.12
74968;SHT30;63523;51.880;12.630;2023-04-24T07:39:04;16.51;63.50
74968;SHT30;63523;51.880;12.630;2023-04-24T07:41:29;16.46;63.32
74968;SHT30;63523;51.880;12.630;2023-04-24T07:43:54;16.55;63.78
74968;SHT30;63523;51.880;12.630;2023-04-24T07:46:20;16.57;63.17
74968;SHT30;63523;51.880;12.630;2023-04-24T07:48:46;16.63;62.96
74968;SHT30;63523;51.880;12.630;2023-04-24T07:51:13;16.83;62.06
74968;SHT30;63523;51.880;12.630;2023-04-24T07:53:39;16.95;61.35
74968;SHT30;63523;51.880;12.630;2023-04-24T07:56:05;16.79;60.36
74968;SHT30;63523;51.880;12.630;2023-04-24T07:58:30;16.69;61.36
74968;SHT30;63523;51.880;12.630;2023-04-24T08:00:56;16.62;62.98
74968;SHT30;63523;51.880;12.630;2023-04-24T08:03:21;16.69;62.48
74968;SHT30;63523;51.880;12.630;2023-04-24T08:05:46;16.81;62.76
74968;SHT30;63523;51.880;12.630;2023-04-24T08:08:12;16.95;61.77
74968;SHT30;63523;51.880;12.630;2023-04-24T08:10:38;16.94;62.58
74968;SHT30;63523;51.880;12.630;2023-04-24T08:13:03;16.95;61.97
74968;SHT30;63523;51.880;12.630;2023-04-24T08:15:28;16.87;61.76
74968;SHT30;63523;51.880;12.630;2023-04-24T08:17:53;16.77;62.23
74968;SHT30;63523;51.880;12.630;2023-04-24T08:20:19;16.73;62.74
74968;SHT30;63523;51.880;12.630;2023-04-24T08:22:44;17.04;61.27
74968;SHT30;63523;51.880;12.630;2023-04-24T08:25:12;17.31;61.70
74968;SHT30;63523;51.880;12.630;2023-04-24T08:27:38;17.38;61.49
74968;SHT30;63523;51.880;12.630;2023-04-24T08:30:04;17.52;61.83
74968;SHT30;63523;51.880;12.630;2023-04-24T08:32:30;17.63;59.95
74968;SHT30;63523;51.880;12.630;2023-04-24T08:34:56;17.70;58.91
74968;SHT30;63523;51.880;12.630;2023-04-24T08:37:22;17.65;59.19
74968;SHT30;63523;51.880;12.630;2023-04-24T08:39:49;17.59;59.72
74968;SHT30;63523;51.880;12.630;2023-04-24T08:42:14;17.50;60.16
74968;SHT30;63523;51.880;12.630;2023-04-24T08:44:40;17.65;60.58
74968;SHT30;63523;51.880;12.630;2023-04-24T08:47:07;17.76;58.97
74968;SHT30;63523;51.880;12.630;2023-04-24T08:49:33;17.87;57.52
74968;SHT30;63523;51.880;12.630;2023-04-24T08:51:58;18.04;58.15
74968;SHT30;63523;51.880;12.630;2023-04-24T08:54:25;17.90;57.89
74968;SHT30;63523;51.880;12.630;2023-04-24T08:56:53;17.62;58.07
74968;SHT30;63523;51.880;12.630;2023-04-24T08:59:21;17.66;59.10
74968;SHT30;63523;51.880;12.630;2023-04-24T09:01:47;17.52;58.74
74968;SHT30;63523;51.880;12.630;2023-04-24T09:04:14;17.38;59.39
74968;SHT30;63523;51.880;12.630;2023-04-24T09:06:41;17.32;58.74
74968;SHT30;63523;51.880;12.630;2023-04-24T09:09:08;17.35;60.23
74968;SHT30;63523;51.880;12.630;2023-04-24T09:11:34;17.57;59.40
74968;SHT30;63523;51.880;12.630;2023-04-24T09:14:00;17.94;57.46
74968;SHT30;63523;51.880;12.630;2023-04-24T09:16:26;18.44;56.49
74968;SHT30;63523;51.880;12.630;2023-04-24T09:18:52;18.80;57.32
74968;SHT30;63523;51.880;12.630;2023-04-24T09:21:20;18.91;54.11
74968;SHT30;63523;51.880;12.630;2023-04-24T09:23:46;18.79;55.37
74968;SHT30;63523;51.880;12.630;2023-04-24T09:26:11;18.67;56.80
74968;SHT30;63523;51.880;12.630;2023-04-24T09:28:39;18.41;55.45
74968;SHT30;63523;51.880;12.630;2023-04-24T09:31:09;17.94;56.44
74968;SHT30;63523;51.880;12.630;2023-04-24T09:33:35;17.61;57.68
74968;SHT30;63523;51.880;12.630;2023-04-24T09:36:01;17.57;57.63
74968;SHT30;63523;51.880;12.630;2023-04-24T09:38:32;17.69;58.73
74968;SHT30;63523;51.880;12.630;2023-04-24T09:41:12;18.18;55.83
74968;SHT30;63523;51.880;12.630;2023-04-24T09:43:38;18.69;54.32
74968;SHT30;63523;51.880;12.630;2023-04-24T09:46:07;18.69;53.72
74968;SHT30;63523;51.880;12.630;2023-04-24T09:48:36;18.67;54.86
74968;SHT30;63523;51.880;12.630;2023-04-24T09:51:03;19.27;52.53
74968;SHT30;63523;51.880;12.630;2023-04-24T09:53:30;19.66;52.15
74968;SHT30;63523;51.880;12.630;2023-04-24T09:55:56;19.77;52.69
74968;SHT30;63523;51.880;12.630;2023-04-24T09:58:25;19.21;51.79
74968;SHT30;63523;51.880;12.630;2023-04-24T10:00:53;18.84;52.17
74968;SHT30;63523;51.880;12.630;2023-04-24T10:03:19;19.25;52.61
74968;SHT30;63523;51.880;12.630;2023-04-24T10:05:46;19.66;49.98
74968;SHT30;63523;51.880;12.630;2023-04-24T10:08:12;19.96;46.94
74968;SHT30;63523;51.880;12.630;2023-04-24T10:10:42;19.59;45.11
74968;SHT30;63523;51.880;12.630;2023-04-24T10:13:09;19.04;47.20
74968;SHT30;63523;51.880;12.630;2023-04-24T10:15:35;18.57;47.51
74968;SHT30;63523;51.880;12.630;2023-04-24T10:18:01;18.39;50.00
74968;SHT30;63523;51.880;12.630;2023-04-24T10:20:28;18.34;51.17
74968;SHT30;63523;51.880;12.630;2023-04-24T10:22:55;18.84;53.52
74968;SHT30;63523;51.880;12.630;2023-04-24T10:25:26;19.51;50.51
74968;SHT30;63523;51.880;12.630;2023-04-24T10:27:52;20.21;45.58
74968;SHT30;63523;51.880;12.630;2023-04-24T10:30:19;20.51;43.84
74968;SHT30;63523;51.880;12.630;2023-04-24T10:32:45;20.70;43.03
74968;SHT30;63523;51.880;12.630;2023-04-24T10:35:14;20.24;41.79
74968;SHT30;63523;51.880;12.630;2023-04-24T10:37:44;19.46;41.62
74968;SHT30;63523;51.880;12.630;2023-04-24T10:40:11;19.12;42.51
74968;SHT30;63523;51.880;12.630;2023-04-24T10:42:41;18.81;42.51
74968;SHT30;63523;51.880;12.630;2023-04-24T10:45:22;18.91;44.03
74968;SHT30;63523;51.880;12.630;2023-04-24T10:47:59;19.07;42.44
74968;SHT30;63523;51.880;12.630;2023-04-24T10:50:37;18.79;44.25
74968;SHT30;63523;51.880;12.630;2023-04-24T10:53:08;18.97;44.66
74968;SHT30;63523;51.880;12.630;2023-04-24T10:56:02;19.34;45.58
74968;SHT30;63523;51.880;12.630;2023-04-24T10:58:45;20.07;43.87
74968;SHT30;63523;51.880;12.630;2023-04-24T11:01:27;20.59;41.30
74968;SHT30;63523;51.880;12.630;2023-04-24T11:04:00;20.77;37.73
74968;SHT30;63523;51.880;12.630;2023-04-24T11:06:35;20.48;37.28
74968;SHT30;63523;51.880;12.630;2023-04-24T11:09:05;20.72;38.59
74968;SHT30;63523;51.880;12.630;2023-04-24T11:11:31;20.98;39.23
74968;SHT30;63523;51.880;12.630;2023-04-24T11:19:08;21.34;36.09
74968;SHT30;63523;51.880;12.630;2023-04-24T11:21:42;21.31;37.75
74968;SHT30;63523;51.880;12.630;2023-04-24T11:24:38;21.18;38.31
74968;SHT30;63523;51.880;12.630;2023-04-24T11:29:52;20.89;36.12
74968;SHT30;63523;51.880;12.630;2023-04-24T11:32:34;20.49;35.56
74968;SHT30;63523;51.880;12.630;2023-04-24T11:35:17;19.74;36.44
74968;SHT30;63523;51.880;12.630;2023-04-24T11:37:44;18.81;37.59
74968;SHT30;63523;51.880;12.630;2023-04-24T11:40:15;18.28;39.58
74968;SHT30;63523;51.880;12.630;2023-04-24T11:42:45;18.22;42.50
74968;SHT30;63523;51.880;12.630;2023-04-24T11:45:22;18.42;42.61
74968;SHT30;63523;51.880;12.630;2023-04-24T11:47:48;18.69;39.89
74968;SHT30;63523;51.880;12.630;2023-04-24T11:50:18;18.81;39.70
74968;SHT30;63523;51.880;12.630;2023-04-24T11:52:45;18.79;42.38
74968;SHT30;63523;51.880;12.630;2023-04-24T11:57:38;18.76;41.15
74968;SHT30;63523;51.880;12.630;2023-04-24T12:00:04;18.73;39.72
74968;SHT30;63523;51.880;12.630;2023-04-24T12:02:30;18.70;42.90
74968;SHT30;63523;51.880;12.630;2023-04-24T12:04:55;18.89;39.63
74968;SHT30;63523;51.880;12.630;2023-04-24T12:07:22;18.74;38.17
74968;SHT30;63523;51.880;12.630;2023-04-24T12:09:55;18.74;37.94
74968;SHT30;63523;51.880;12.630;2023-04-24T12:12:24;18.57;38.81
74968;SHT30;63523;51.880;12.630;2023-04-24T12:14:53;18.45;40.02
74968;SHT30;63523;51.880;12.630;2023-04-24T12:17:28;18.56;40.03
74968;SHT30;63523;51.880;12.630;2023-04-24T12:20:03;18.73;39.34
74968;SHT30;63523;51.880;12.630;2023-04-24T12:22:49;18.57;37.58
74968;SHT30;63523;51.880;12.630;2023-04-24T12:25:16;18.69;39.60
74968;SHT30;63523;51.880;12.630;2023-04-24T12:27:41;18.56;38.59
74968;SHT30;63523;51.880;12.630;2023-04-24T12:30:11;18.64;41.05
74968;SHT30;63523;51.880;12.630;2023-04-24T12:32:44;18.66;40.80
74968;SHT30;63523;51.880;12.630;2023-04-24T12:35:10;18.87;39.76
74968;SHT30;63523;51.880;12.630;2023-04-24T12:37:35;18.94;39.03
74968;SHT30;63523;51.880;12.630;2023-04-24T12:40:08;18.91;39.77
74968;SHT30;63523;51.880;12.630;2023-04-24T12:42:34;19.10;38.08
74968;SHT30;63523;51.880;12.630;2023-04-24T12:45:05;18.97;37.50
74968;SHT30;63523;51.880;12.630;2023-04-24T12:47:32;18.87;36.71
74968;SHT30;63523;51.880;12.630;2023-04-24T12:49:57;18.70;39.62
74968;SHT30;63523;51.880;12.630;2023-04-24T12:52:23;18.77;37.66
74968;SHT30;63523;51.880;12.630;2023-04-24T12:54:50;18.67;37.59
74968;SHT30;63523;51.880;12.630;2023-04-24T12:57:16;18.64;39.57
74968;SHT30;63523;51.880;12.630;2023-04-24T12:59:41;18.84;38.29
74968;SHT30;63523;51.880;12.630;2023-04-24T13:02:07;18.81;39.00
74968;SHT30;63523;51.880;12.630;2023-04-24T13:04:32;18.77;38.02
74968;SHT30;63523;51.880;12.630;2023-04-24T13:06:57;18.67;39.75
74968;SHT30;63523;51.880;12.630;2023-04-24T13:09:22;18.56;39.67
74968;SHT30;63523;51.880;12.630;2023-04-24T13:11:49;18.57;39.88
74968;SHT30;63523;51.880;12.630;2023-04-24T13:14:14;18.49;39.41
74968;SHT30;63523;51.880;12.630;2023-04-24T13:16:40;18.29;40.67
74968;SHT30;63523;51.880;12.630;2023-04-24T13:19:05;18.12;42.70
74968;SHT30;63523;51.880;12.630;2023-04-24T13:21:31;18.12;41.36
74968;SHT30;63523;51.880;12.630;2023-04-24T13:23:56;18.41;39.70
74968;SHT30;63523;51.880;12.630;2023-04-24T13:26:22;18.53;39.63
74968;SHT30;63523;51.880;12.630;2023-04-24T13:28:47;18.35;42.46
74968;SHT30;63523;51.880;12.630;2023-04-24T13:31:12;18.44;38.77
74968;SHT30;63523;51.880;12.630;2023-04-24T13:33:38;18.17;40.19
74968;SHT30;63523;51.880;12.630;2023-04-24T13:36:04;18.24;37.97
74968;SHT30;63523;51.880;12.630;2023-04-24T13:38:29;18.18;39.90
74968;SHT30;63523;51.880;12.630;2023-04-24T13:40:54;18.07;39.20
74968;SHT30;63523;51.880;12.630;2023-04-24T13:43:20;18.05;38.93
74968;SHT30;63523;51.880;12.630;2023-04-24T13:45:45;18.10;40.63
74968;SHT30;63523;51.880;12.630;2023-04-24T13:48:10;18.02;41.11
74968;SHT30;63523;51.880;12.630;2023-04-24T13:50:36;18.10;40.44
74968;SHT30;63523;51.880;12.630;2023-04-24T13:53:02;18.08;41.99
74968;SHT30;63523;51.880;12.630;2023-04-24T13:55:28;18.04;42.34
74968;SHT30;63523;51.880;12.630;2023-04-24T13:57:54;18.25;39.57
74968;SHT30;63523;51.880;12.630;2023-04-24T14:00:21;18.25;39.41
74968;SHT30;63523;51.880;12.630;2023-04-24T14:02:46;18.12;41.16
74968;SHT30;63523;51.880;12.630;2023-04-24T14:05:13;18.15;42.13
74968;SHT30;63523;51.880;12.630;2023-04-24T14:07:40;18.15;41.67
74968;SHT30;63523;51.880;12.630;2023-04-24T14:10:06;18.11;43.05
74968;SHT30;63523;51.880;12.630;2023-04-24T14:12:31;18.10;43.58
74968;SHT30;63523;51.880;12.630;2023-04-24T14:14:57;18.28;42.30
74968;SHT30;63523;51.880;12.630;2023-04-24T14:17:22;18.41;42.50
74968;SHT30;63523;51.880;12.630;2023-04-24T14:19:47;18.56;41.69
74968;SHT30;63523;51.880;12.630;2023-04-24T14:22:13;18.66;41.74
74968;SHT30;63523;51.880;12.630;2023-04-24T14:24:38;18.53;39.64
74968;SHT30;63523;51.880;12.630;2023-04-24T14:27:03;18.27;40.62
74968;SHT30;63523;51.880;12.630;2023-04-24T14:29:29;18.05;42.42
74968;SHT30;63523;51.880;12.630;2023-04-24T14:31:54;17.93;40.86
74968;SHT30;63523;51.880;12.630;2023-04-24T14:34:19;17.93;42.54
74968;SHT30;63523;51.880;12.630;2023-04-24T14:36:45;17.94;40.92
74968;SHT30;63523;51.880;12.630;2023-04-24T14:39:10;17.84;43.31
74968;SHT30;63523;51.880;12.630;2023-04-24T14:41:35;17.69;43.10
74968;SHT30;63523;51.880;12.630;2023-04-24T14:44:02;17.43;43.01
74968;SHT30;63523;51.880;12.630;2023-04-24T14:46:28;17.25;43.05
74968;SHT30;63523;51.880;12.630;2023-04-24T14:48:55;16.88;44.57
74968;SHT30;63523;51.880;12.630;2023-04-24T14:51:21;16.74;45.47
74968;SHT30;63523;51.880;12.630;2023-04-24T14:53:46;16.63;47.38
74968;SHT30;63523;51.880;12.630;2023-04-24T14:56:12;16.38;47.38
74968;SHT30;63523;51.880;12.630;2023-04-24T14:58:38;16.30;47.92
74968;SHT30;63523;51.880;12.630;2023-04-24T15:01:03;16.60;46.58
74968;SHT30;63523;51.880;12.630;2023-04-24T15:03:29;16.79;46.96
74968;SHT30;63523;51.880;12.630;2023-04-24T15:05:54;16.83;45.80
74968;SHT30;63523;51.880;12.630;2023-04-24T15:08:19;16.91;46.78
74968;SHT30;63523;51.880;12.630;2023-04-24T15:10:45;17.18;46.53
74968;SHT30;63523;51.880;12.630;2023-04-24T15:13:10;17.12;45.69
74968;SHT30;63523;51.880;12.630;2023-04-24T15:15:36;17.07;46.74
74968;SHT30;63523;51.880;12.630;2023-04-24T15:18:02;17.01;47.59
74968;SHT30;63523;51.880;12.630;2023-04-24T15:20:27;16.84;46.68